createdAt,value
2023-03-12T00:01:30.723Z,17.60
2023-03-12T00:03:58.551Z,8.50
2023-03-12T00:06:25.990Z,13.33
2023-03-12T00:08:56.229Z,8.10
2023-03-12T00:11:23.670Z,7.13
2023-03-12T00:13:55.207Z,10.53
2023-03-12T00:16:23.125Z,9.53
2023-03-12T00:18:51.227Z,8.03
2023-03-12T00:21:18.643Z,7.90
2023-03-12T00:23:47.369Z,6.97
2023-03-12T00:26:15.465Z,5.93
2023-03-12T00:28:43.267Z,7.00
2023-03-12T00:31:15.408Z,6.37
2023-03-12T00:33:42.872Z,3.93
2023-03-12T00:36:10.298Z,4.37
2023-03-12T00:38:37.818Z,5.57
2023-03-12T00:41:05.368Z,11.27
2023-03-12T00:43:36.813Z,13.10
2023-03-12T00:46:04.237Z,10.23
2023-03-12T00:48:31.837Z,6.43
2023-03-12T00:50:59.198Z,7.77
2023-03-12T00:53:27.005Z,4.60
2023-03-12T00:55:54.330Z,5.17
2023-03-12T00:58:22.862Z,2.83
2023-03-12T01:00:50.112Z,2.87
2023-03-12T01:03:17.937Z,2.57
2023-03-12T01:05:45.280Z,6.00
2023-03-12T01:08:12.709Z,5.07
2023-03-12T01:10:43.700Z,3.33
2023-03-12T01:13:11.198Z,4.87
2023-03-12T01:15:38.836Z,3.97
2023-03-12T01:18:06.131Z,5.30
2023-03-12T01:20:33.495Z,6.30
2023-03-12T01:23:00.749Z,6.73
2023-03-12T01:25:30.747Z,2.63
2023-03-12T01:27:58.007Z,3.50
2023-03-12T01:30:25.370Z,3.93
2023-03-12T01:32:53.327Z,6.57
2023-03-12T01:35:20.645Z,4.30
2023-03-12T01:37:48.874Z,5.60
2023-03-12T01:40:17.705Z,5.43
2023-03-12T01:42:45.066Z,4.47
2023-03-12T01:45:32.527Z,3.63
2023-03-12T01:47:59.799Z,3.10
2023-03-12T01:50:27.050Z,5.27
2023-03-12T01:52:54.323Z,4.70
2023-03-12T01:55:21.611Z,4.67
2023-03-12T01:57:51.986Z,3.87
2023-03-12T02:00:22.276Z,4.63
2023-03-12T02:02:50.241Z,3.90
2023-03-12T02:05:20.816Z,3.30
2023-03-12T02:07:48.515Z,3.13
2023-03-12T02:10:16.752Z,3.20
2023-03-12T02:12:44.186Z,4.27
2023-03-12T02:15:11.663Z,5.60
2023-03-12T02:17:40.629Z,4.67
2023-03-12T02:20:17.154Z,3.80
2023-03-12T02:22:48.032Z,4.87
2023-03-12T02:25:18.410Z,5.40
2023-03-12T02:27:46.187Z,4.10
2023-03-12T02:30:16.163Z,5.47
2023-03-12T02:32:44.941Z,4.43
2023-03-12T02:35:12.381Z,4.80
2023-03-12T02:37:48.841Z,5.00
2023-03-12T02:40:36.864Z,5.23
2023-03-12T02:43:06.103Z,4.97
2023-03-12T02:45:34.868Z,6.57
2023-03-12T02:48:02.720Z,7.00
2023-03-12T02:50:30.018Z,4.33
2023-03-12T02:52:57.307Z,6.77
2023-03-12T02:55:24.896Z,4.47
2023-03-12T02:57:52.200Z,7.00
2023-03-12T03:00:19.753Z,4.30
2023-03-12T03:02:47.409Z,8.27
2023-03-12T03:05:15.655Z,4.27
2023-03-12T03:07:43.659Z,5.10
2023-03-12T03:10:11.431Z,4.47
2023-03-12T03:12:39.011Z,5.93
2023-03-12T03:15:06.658Z,4.17
2023-03-12T03:17:33.958Z,4.00
2023-03-12T03:20:01.475Z,6.30
2023-03-12T03:22:29.429Z,8.33
2023-03-12T03:24:56.682Z,5.70
2023-03-12T03:27:24.414Z,4.30
2023-03-12T03:29:51.688Z,3.77
2023-03-12T03:32:19.008Z,3.43
2023-03-12T03:34:46.847Z,2.60
2023-03-12T03:37:14.273Z,4.30
2023-03-12T03:39:41.530Z,3.07
2023-03-12T03:42:09.056Z,3.83
2023-03-12T03:44:36.343Z,3.27
2023-03-12T03:47:03.820Z,4.37
2023-03-12T03:49:31.116Z,6.07
2023-03-12T03:51:58.388Z,8.93
2023-03-12T03:54:26.050Z,6.37
2023-03-12T03:56:53.337Z,4.53
2023-03-12T03:59:20.665Z,4.43
2023-03-12T04:01:47.948Z,7.10
2023-03-12T04:04:15.518Z,3.40
2023-03-12T04:06:43.833Z,6.87
2023-03-12T04:09:11.438Z,5.60
2023-03-12T04:11:39.891Z,14.33
2023-03-12T04:14:07.547Z,26.43
2023-03-12T04:16:34.768Z,11.27
2023-03-12T04:19:02.289Z,7.63
2023-03-12T04:21:29.567Z,10.37
2023-03-12T04:23:57.015Z,5.93
2023-03-12T04:26:24.433Z,7.83
2023-03-12T04:28:51.660Z,5.87
2023-03-12T04:31:19.066Z,9.50
2023-03-12T04:33:46.724Z,19.07
2023-03-12T04:36:14.699Z,10.40
2023-03-12T04:38:42.057Z,10.77
2023-03-12T04:41:11.637Z,6.07
2023-03-12T04:43:38.973Z,6.10
2023-03-12T04:46:06.471Z,6.30
2023-03-12T04:48:34.226Z,6.13
2023-03-12T04:51:02.044Z,7.67
2023-03-12T04:53:29.376Z,5.63
2023-03-12T04:55:57.116Z,5.23
2023-03-12T04:58:24.832Z,4.87
2023-03-12T05:00:52.225Z,7.77
2023-03-12T05:03:19.831Z,4.57
2023-03-12T05:05:47.101Z,7.23
2023-03-12T05:08:14.362Z,8.03
2023-03-12T05:10:45.254Z,10.93
2023-03-12T05:13:17.501Z,11.37
2023-03-12T05:15:44.919Z,17.13
2023-03-12T05:18:12.514Z,17.30
2023-03-12T05:20:39.846Z,19.80
2023-03-12T05:23:07.116Z,21.53
2023-03-12T05:25:41.528Z,28.03
2023-03-12T05:28:09.180Z,27.73
2023-03-12T05:30:36.473Z,34.77
2023-03-12T05:33:03.788Z,36.07
2023-03-12T05:35:31.093Z,37.43
2023-03-12T05:37:58.424Z,49.50
2023-03-12T05:40:25.722Z,43.07
2023-03-12T05:42:54.018Z,44.37
2023-03-12T05:45:21.693Z,47.27
2023-03-12T05:47:49.333Z,46.10
2023-03-12T05:50:16.868Z,49.83
2023-03-12T05:52:44.099Z,46.53
2023-03-12T05:55:12.082Z,48.57
2023-03-12T05:57:39.345Z,49.60
2023-03-12T06:00:07.043Z,52.70
2023-03-12T06:02:34.314Z,51.60
2023-03-12T06:05:02.836Z,58.20
2023-03-12T06:07:30.428Z,65.83
2023-03-12T06:10:00.210Z,70.00
2023-03-12T06:12:27.590Z,60.13
2023-03-12T06:14:54.856Z,59.83
2023-03-12T06:17:22.088Z,56.67
2023-03-12T06:19:52.874Z,62.33
2023-03-12T06:22:20.790Z,51.87
2023-03-12T06:24:48.064Z,48.63
2023-03-12T06:27:15.945Z,51.50
2023-03-12T06:29:43.217Z,44.00
2023-03-12T06:32:10.968Z,44.80
2023-03-12T06:34:39.483Z,38.20
2023-03-12T06:37:06.808Z,36.97
2023-03-12T06:39:34.871Z,37.40
2023-03-12T06:42:02.141Z,34.63
2023-03-12T06:44:29.572Z,31.50
2023-03-12T06:46:56.857Z,31.97
2023-03-12T06:49:24.378Z,30.97
2023-03-12T06:51:52.002Z,32.03
2023-03-12T06:54:19.296Z,30.43
2023-03-12T06:56:46.610Z,28.33
2023-03-12T06:59:14.172Z,29.63
2023-03-12T07:01:41.887Z,26.17
2023-03-12T07:04:09.266Z,24.80
2023-03-12T07:06:36.493Z,24.20
2023-03-12T07:09:05.350Z,20.60
2023-03-12T07:11:32.634Z,19.97
2023-03-12T07:13:59.883Z,21.27
2023-03-12T07:16:27.204Z,24.60
2023-03-12T07:18:54.753Z,22.43
2023-03-12T07:21:23.896Z,25.33
2023-03-12T07:23:51.614Z,26.47
2023-03-12T07:26:19.460Z,27.43
2023-03-12T07:28:47.411Z,25.67
2023-03-12T07:31:14.862Z,24.70
2023-03-12T07:33:42.294Z,27.03
2023-03-12T07:36:10.028Z,27.03
2023-03-12T07:38:38.013Z,30.33
2023-03-12T07:41:05.390Z,27.10
2023-03-12T07:43:33.099Z,28.17
2023-03-12T07:46:00.527Z,29.17
2023-03-12T07:48:27.788Z,26.97
2023-03-12T07:50:55.221Z,28.17
2023-03-12T07:53:22.488Z,28.10
2023-03-12T07:55:50.366Z,29.23
2023-03-12T07:58:18.197Z,26.83
2023-03-12T08:00:45.513Z,26.73
2023-03-12T08:03:13.604Z,25.03
2023-03-12T08:05:41.669Z,23.40
2023-03-12T08:08:09.633Z,22.07
2023-03-12T08:10:37.542Z,22.63
2023-03-12T08:13:05.117Z,23.03
2023-03-12T08:15:33.522Z,21.20
2023-03-12T08:18:01.511Z,21.70
2023-03-12T08:20:29.005Z,19.20
2023-03-12T08:22:57.443Z,18.63
2023-03-12T08:25:25.056Z,18.70
2023-03-12T08:27:52.619Z,18.27
2023-03-12T08:30:19.903Z,15.60
2023-03-12T08:32:47.657Z,15.57
2023-03-12T08:35:14.917Z,13.53
2023-03-12T08:37:42.239Z,11.07
2023-03-12T08:40:15.822Z,12.37
2023-03-12T08:42:44.122Z,11.77
2023-03-12T08:45:12.373Z,12.13
2023-03-12T08:47:41.826Z,11.20
2023-03-12T08:50:09.897Z,11.77
2023-03-12T08:52:37.226Z,10.23
2023-03-12T08:55:06.047Z,10.83
2023-03-12T08:57:33.752Z,9.73
2023-03-12T09:00:01.106Z,9.50
2023-03-12T09:02:28.841Z,9.50
2023-03-12T09:04:56.089Z,10.63
2023-03-12T09:07:24.008Z,8.63
2023-03-12T09:09:51.386Z,8.03
2023-03-12T09:12:18.943Z,9.13
2023-03-12T09:15:03.835Z,8.03
2023-03-12T09:17:32.109Z,6.40
2023-03-12T09:20:00.226Z,10.23
2023-03-12T09:22:27.576Z,7.37
2023-03-12T09:24:56.138Z,6.17
2023-03-12T09:27:23.581Z,10.37
2023-03-12T09:30:07.078Z,8.17
2023-03-12T09:32:34.791Z,8.60
2023-03-12T09:35:02.141Z,10.33
2023-03-12T09:37:29.825Z,7.87
2023-03-12T09:39:57.253Z,7.47
2023-03-12T09:42:26.640Z,8.83
2023-03-12T09:44:57.024Z,7.20
2023-03-12T09:47:25.331Z,10.87
2023-03-12T09:49:57.125Z,11.63
2023-03-12T09:52:33.906Z,7.97
2023-03-12T09:55:15.130Z,11.53
2023-03-12T09:57:43.337Z,11.47
2023-03-12T10:00:15.448Z,6.67
2023-03-12T10:03:01.657Z,17.97
2023-03-12T10:05:39.706Z,58.00
2023-03-12T10:08:23.912Z,30.80
2023-03-12T10:10:55.474Z,20.93
2023-03-12T10:13:22.754Z,8.33
2023-03-12T10:15:50.105Z,6.90
2023-03-12T10:18:39.469Z,3.70
2023-03-12T10:21:25.801Z,9.37
2023-03-12T10:24:00.117Z,7.20
2023-03-12T10:26:37.999Z,3.90
2023-03-12T10:29:12.484Z,6.90
2023-03-12T10:32:01.800Z,4.10
2023-03-12T10:34:49.801Z,3.97
2023-03-12T10:37:17.145Z,3.27
2023-03-12T10:39:44.715Z,3.83
2023-03-12T10:42:19.599Z,6.30
2023-03-12T10:44:52.148Z,2.97
2023-03-12T10:47:19.436Z,5.00
2023-03-12T10:49:51.160Z,4.60
2023-03-12T10:52:22.834Z,5.00
2023-03-12T10:54:51.832Z,4.17
2023-03-12T10:57:19.597Z,7.30
2023-03-12T10:59:47.941Z,7.83
2023-03-12T11:02:35.708Z,10.27
2023-03-12T11:05:05.727Z,13.43
2023-03-12T11:07:33.998Z,6.57
2023-03-12T11:10:07.493Z,7.07
2023-03-12T11:12:36.244Z,3.70
2023-03-12T11:15:22.312Z,6.00
2023-03-12T11:17:49.653Z,4.10
2023-03-12T11:20:35.034Z,7.90
2023-03-12T11:23:14.097Z,5.87
2023-03-12T11:25:41.450Z,7.63
2023-03-12T11:28:14.528Z,10.90
2023-03-12T11:30:41.938Z,10.17
2023-03-12T11:33:10.248Z,10.07
2023-03-12T11:35:40.784Z,4.63
2023-03-12T11:38:18.281Z,5.07
2023-03-12T11:40:52.080Z,3.90
2023-03-12T11:43:42.758Z,3.40
2023-03-12T11:46:13.928Z,11.60
2023-03-12T11:48:41.278Z,3.77
2023-03-12T11:51:08.722Z,5.70
2023-03-12T11:53:54.975Z,8.00
2023-03-12T11:56:35.261Z,8.73
2023-03-12T11:59:22.405Z,4.70
2023-03-12T12:01:58.726Z,7.07
2023-03-12T12:04:32.209Z,8.80
2023-03-12T12:07:03.090Z,6.80
2023-03-12T12:09:51.170Z,3.97
2023-03-12T12:12:39.256Z,6.50
2023-03-12T12:15:10.615Z,5.73
2023-03-12T12:17:56.661Z,4.73
2023-03-12T12:20:39.845Z,3.57
2023-03-12T12:23:13.620Z,4.23
2023-03-12T12:26:06.067Z,4.37
2023-03-12T12:28:54.381Z,4.50
2023-03-12T12:31:21.843Z,14.60
2023-03-12T12:34:02.103Z,5.60
2023-03-12T12:36:32.192Z,6.87
2023-03-12T12:39:01.619Z,6.63
2023-03-12T12:41:33.174Z,22.07
2023-03-12T12:44:02.198Z,22.93
2023-03-12T12:46:33.261Z,11.07
2023-03-12T12:49:04.172Z,4.50
2023-03-12T12:51:33.479Z,7.30
2023-03-12T12:54:08.071Z,17.50
2023-03-12T12:56:42.858Z,8.40
2023-03-12T12:59:33.877Z,29.07
2023-03-12T13:02:02.339Z,7.43
2023-03-12T13:04:33.441Z,7.23
2023-03-12T13:07:13.154Z,3.40
2023-03-12T13:09:41.111Z,5.80
2023-03-12T13:12:28.956Z,3.13
2023-03-12T13:14:57.221Z,7.03
2023-03-12T13:17:25.587Z,4.57
2023-03-12T13:20:01.266Z,5.27
2023-03-12T13:22:32.185Z,3.97
2023-03-12T13:25:10.850Z,3.27
2023-03-12T13:27:40.203Z,4.47
2023-03-12T13:30:28.091Z,4.13
2023-03-12T13:32:58.937Z,3.07
2023-03-12T13:35:26.282Z,4.50
2023-03-12T13:37:54.057Z,4.37
2023-03-12T13:40:30.575Z,1.50
2023-03-12T13:43:12.177Z,3.13
2023-03-12T13:45:55.691Z,2.67
2023-03-12T13:48:23.628Z,4.67
2023-03-12T13:51:02.231Z,1.83
2023-03-12T13:53:40.697Z,1.77
2023-03-12T13:56:11.546Z,2.10
2023-03-12T13:58:49.088Z,4.40
2023-03-12T14:01:19.702Z,2.73
2023-03-12T14:03:49.997Z,1.33
2023-03-12T14:06:25.753Z,3.30
2023-03-12T14:08:59.496Z,2.37
2023-03-12T14:11:40.642Z,4.47
2023-03-12T14:14:25.401Z,3.07
2023-03-12T14:16:53.452Z,2.57
2023-03-12T14:19:25.712Z,1.90
2023-03-12T14:21:53.796Z,2.27
2023-03-12T14:24:21.433Z,1.83
2023-03-12T14:26:48.931Z,2.63
2023-03-12T14:29:22.298Z,3.40
2023-03-12T14:31:50.304Z,2.80
2023-03-12T14:34:28.003Z,3.57
2023-03-12T14:37:01.577Z,3.10
2023-03-12T14:39:31.993Z,3.53
2023-03-12T14:42:05.109Z,3.00
2023-03-12T14:44:34.260Z,1.87
2023-03-12T14:47:12.260Z,3.13
2023-03-12T14:49:41.041Z,3.27
2023-03-12T14:52:08.656Z,2.93
2023-03-12T14:54:36.057Z,1.47
2023-03-12T14:57:03.433Z,3.17
2023-03-12T14:59:37.741Z,5.37
2023-03-12T15:02:12.192Z,2.40
2023-03-12T15:04:39.795Z,2.37
2023-03-12T15:07:10.350Z,2.23
2023-03-12T15:09:37.978Z,3.30
2023-03-12T15:12:07.902Z,2.37
2023-03-12T15:14:39.463Z,3.03
2023-03-12T15:17:08.044Z,4.40
2023-03-12T15:19:40.369Z,5.53
2023-03-12T15:22:11.133Z,3.87
2023-03-12T15:24:40.808Z,2.00
2023-03-12T15:27:23.630Z,2.77
2023-03-12T15:29:51.046Z,4.30
2023-03-12T15:32:20.790Z,2.87
2023-03-12T15:34:50.387Z,9.83
2023-03-12T15:37:38.213Z,3.03
2023-03-12T15:40:07.939Z,4.23
2023-03-12T15:42:43.141Z,2.77
2023-03-12T15:45:21.617Z,4.43
2023-03-12T15:47:49.634Z,5.93
2023-03-12T15:50:24.567Z,3.77
2023-03-12T15:53:01.121Z,3.27
2023-03-12T15:55:32.958Z,2.60
2023-03-12T15:58:00.958Z,2.23
2023-03-12T16:00:44.991Z,4.90
2023-03-12T16:03:19.560Z,2.57
2023-03-12T16:05:47.891Z,1.90
2023-03-12T16:08:16.919Z,3.63
2023-03-12T16:10:44.638Z,2.17
2023-03-12T16:13:14.822Z,3.53
2023-03-12T16:15:42.187Z,2.13
2023-03-12T16:18:17.076Z,1.60
2023-03-12T16:20:44.815Z,6.97
2023-03-12T16:23:12.714Z,3.23
2023-03-12T16:25:40.416Z,4.47
2023-03-12T16:28:08.400Z,5.00
2023-03-12T16:30:36.925Z,2.60
2023-03-12T16:33:08.740Z,3.80
2023-03-12T16:35:36.620Z,4.60
2023-03-12T16:38:04.384Z,3.43
2023-03-12T16:40:34.304Z,3.97
2023-03-12T16:43:03.867Z,4.50
2023-03-12T16:45:32.299Z,4.30
2023-03-12T16:48:00.808Z,5.27
2023-03-12T16:50:28.434Z,3.70
2023-03-12T16:52:56.460Z,7.10
2023-03-12T16:55:26.453Z,7.77
2023-03-12T16:57:55.466Z,8.53
2023-03-12T17:00:24.872Z,6.57
2023-03-12T17:02:57.818Z,4.90
2023-03-12T17:05:29.138Z,5.43
2023-03-12T17:07:56.854Z,9.23
2023-03-12T17:10:25.318Z,4.03
2023-03-12T17:12:53.195Z,5.90
2023-03-12T17:15:23.657Z,8.37
2023-03-12T17:17:51.072Z,9.60
2023-03-12T17:20:19.683Z,8.23
2023-03-12T17:22:47.060Z,7.63
2023-03-12T17:25:26.025Z,4.23
2023-03-12T17:27:54.214Z,7.57
2023-03-12T17:30:22.162Z,10.13
2023-03-12T17:32:50.272Z,6.27
2023-03-12T17:35:18.470Z,10.13
2023-03-12T17:37:48.426Z,4.07
2023-03-12T17:40:16.380Z,4.90
2023-03-12T17:42:43.718Z,6.47
2023-03-12T17:45:11.348Z,5.47
2023-03-12T17:47:38.694Z,4.60
2023-03-12T17:50:06.969Z,6.07
2023-03-12T17:52:35.137Z,7.00
2023-03-12T17:55:03.575Z,5.87
2023-03-12T17:57:31.056Z,4.03
2023-03-12T17:59:58.307Z,5.53
2023-03-12T18:02:25.577Z,9.30
2023-03-12T18:04:53.121Z,5.47
2023-03-12T18:07:20.479Z,4.27
2023-03-12T18:09:47.750Z,6.77
2023-03-12T18:12:15.089Z,5.83
2023-03-12T18:14:42.693Z,7.20
2023-03-12T18:17:10.768Z,4.13
2023-03-12T18:19:38.072Z,5.37
2023-03-12T18:22:07.231Z,4.00
2023-03-12T18:24:34.901Z,11.30
2023-03-12T18:27:02.224Z,9.27
2023-03-12T18:29:30.000Z,8.97
2023-03-12T18:31:57.230Z,7.80
2023-03-12T18:34:24.587Z,6.50
2023-03-12T18:36:51.945Z,6.47
2023-03-12T18:39:19.361Z,6.87
2023-03-12T18:41:47.117Z,5.53
2023-03-12T18:44:14.571Z,7.03
2023-03-12T18:46:43.019Z,13.60
2023-03-12T18:49:12.506Z,9.47
2023-03-12T18:51:39.806Z,10.63
2023-03-12T18:54:07.176Z,10.37
2023-03-12T18:56:38.212Z,9.03
2023-03-12T18:59:05.934Z,9.50
2023-03-12T19:01:33.387Z,10.07
2023-03-12T19:04:01.052Z,6.00
2023-03-12T19:06:31.249Z,6.40
2023-03-12T19:09:05.695Z,7.03
2023-03-12T19:11:32.976Z,8.47
2023-03-12T19:14:02.177Z,6.83
2023-03-12T19:16:30.067Z,8.57
2023-03-12T19:18:57.588Z,10.13
2023-03-12T19:21:24.891Z,8.97
2023-03-12T19:23:53.167Z,8.20
2023-03-12T19:26:20.661Z,6.50
2023-03-12T19:28:47.886Z,8.33
2023-03-12T19:31:15.576Z,6.97
2023-03-12T19:33:43.943Z,5.97
2023-03-12T19:36:11.600Z,6.03
2023-03-12T19:38:39.053Z,6.60
2023-03-12T19:41:08.686Z,7.23
2023-03-12T19:43:36.996Z,7.87
2023-03-12T19:46:04.794Z,6.27
2023-03-12T19:48:32.272Z,6.00
2023-03-12T19:51:05.634Z,6.10
2023-03-12T19:53:33.214Z,7.47
2023-03-12T19:56:00.552Z,8.00
2023-03-12T19:58:28.215Z,5.67
2023-03-12T20:00:58.265Z,8.83
2023-03-12T20:03:25.773Z,9.60
2023-03-12T20:05:53.331Z,10.87
2023-03-12T20:08:22.011Z,6.57
2023-03-12T20:10:49.777Z,5.93
2023-03-12T20:13:17.971Z,11.63
2023-03-12T20:15:47.053Z,11.27
2023-03-12T20:18:15.023Z,5.97
2023-03-12T20:20:42.998Z,6.13
2023-03-12T20:23:10.391Z,6.67
2023-03-12T20:25:41.187Z,7.53
2023-03-12T20:28:09.239Z,11.13
2023-03-12T20:30:37.221Z,9.17
2023-03-12T20:33:06.013Z,10.73
2023-03-12T20:35:33.579Z,8.23
2023-03-12T20:38:01.120Z,12.10
2023-03-12T20:40:28.952Z,10.97
2023-03-12T20:42:56.857Z,5.27
2023-03-12T20:45:24.540Z,8.57
2023-03-12T20:47:51.927Z,12.27
2023-03-12T20:50:19.237Z,13.20
2023-03-12T20:52:49.801Z,8.43
2023-03-12T20:55:17.090Z,10.97
2023-03-12T20:57:46.428Z,7.80
2023-03-12T21:00:14.024Z,11.87
2023-03-12T21:02:42.166Z,10.60
2023-03-12T21:05:11.629Z,6.70
2023-03-12T21:07:39.037Z,9.70
2023-03-12T21:10:06.554Z,7.90
2023-03-12T21:12:33.835Z,9.83
2023-03-12T21:15:06.486Z,10.47
2023-03-12T21:17:34.732Z,11.37
2023-03-12T21:20:02.732Z,8.80
2023-03-12T21:22:30.703Z,14.77
2023-03-12T21:24:58.725Z,13.13
2023-03-12T21:27:26.016Z,11.60
2023-03-12T21:29:53.906Z,15.90
2023-03-12T21:32:22.776Z,15.27
2023-03-12T21:34:50.294Z,14.00
2023-03-12T21:37:17.623Z,14.93
2023-03-12T21:39:45.053Z,7.63
2023-03-12T21:42:12.392Z,13.10
2023-03-12T21:44:39.653Z,16.37
2023-03-12T21:47:07.382Z,11.57
2023-03-12T21:49:35.112Z,9.40
2023-03-12T21:52:03.530Z,10.40
2023-03-12T21:54:34.794Z,10.23
2023-03-12T21:57:03.456Z,10.00
2023-03-12T21:59:31.042Z,8.20
2023-03-12T22:01:58.758Z,8.37
2023-03-12T22:04:26.384Z,11.37
2023-03-12T22:06:53.813Z,11.00
2023-03-12T22:09:21.112Z,15.50
2023-03-12T22:11:48.596Z,11.07
2023-03-12T22:14:15.976Z,12.50
2023-03-12T22:16:43.307Z,14.27
2023-03-12T22:19:10.912Z,10.37
2023-03-12T22:21:38.681Z,13.27
2023-03-12T22:24:06.164Z,9.73
2023-03-12T22:26:33.520Z,9.33
2023-03-12T22:29:01.442Z,14.47
2023-03-12T22:31:29.765Z,13.43
2023-03-12T22:33:58.125Z,11.03
2023-03-12T22:36:25.620Z,13.83
2023-03-12T22:38:53.097Z,13.17
2023-03-12T22:41:27.661Z,11.27
2023-03-12T22:43:56.229Z,10.30
2023-03-12T22:46:25.161Z,12.10
2023-03-12T22:48:54.029Z,13.90
2023-03-12T22:51:21.333Z,13.00
2023-03-12T22:53:48.570Z,10.53
2023-03-12T22:56:16.352Z,9.63
2023-03-12T22:58:45.498Z,10.40
2023-03-12T23:01:14.194Z,15.33
2023-03-12T23:03:42.665Z,12.60
2023-03-12T23:06:11.255Z,13.30
2023-03-12T23:08:38.956Z,9.97
2023-03-12T23:11:06.684Z,10.73
2023-03-12T23:13:35.129Z,11.77
2023-03-12T23:16:06.507Z,6.47
2023-03-12T23:18:34.703Z,11.17
2023-03-12T23:21:03.065Z,11.17
2023-03-12T23:23:30.555Z,13.33
2023-03-12T23:25:58.699Z,9.13
2023-03-12T23:28:27.129Z,8.30
2023-03-12T23:30:58.488Z,8.87
2023-03-12T23:33:26.358Z,10.97
2023-03-12T23:35:58.311Z,10.00
2023-03-12T23:38:26.651Z,8.57
2023-03-12T23:40:54.177Z,10.43
2023-03-12T23:43:21.415Z,8.53
2023-03-12T23:45:55.829Z,13.27
2023-03-12T23:48:23.173Z,6.33
2023-03-12T23:50:50.648Z,10.37
2023-03-12T23:53:17.920Z,7.87
2023-03-12T23:55:54.594Z,8.47
2023-03-12T23:58:21.890Z,8.40
